createdAt,value
2018-09-05T00:00:15.567Z,107.53
2018-09-05T00:02:44.967Z,116.13
2018-09-05T00:05:14.376Z,128.73
2018-09-05T00:07:44.382Z,141.67
2018-09-05T00:10:13.577Z,124.20
2018-09-05T00:12:42.644Z,132.50
2018-09-05T00:15:11.741Z,136.83
2018-09-05T00:17:57.090Z,127.60
2018-09-05T00:20:26.272Z,134.37
2018-09-05T00:22:55.627Z,123.60
2018-09-05T00:25:25.466Z,153.43
2018-09-05T00:27:54.640Z,155.13
2018-09-05T00:30:24.201Z,132.20
2018-09-05T00:32:53.428Z,154.90
2018-09-05T00:35:22.557Z,170.30
2018-09-05T00:37:52.459Z,144.80
2018-09-05T00:40:21.782Z,151.87
2018-09-05T00:42:51.420Z,174.07
2018-09-05T00:45:20.693Z,178.23
2018-09-05T00:47:49.846Z,153.67
2018-09-05T00:50:18.941Z,166.90
2018-09-05T00:52:49.508Z,161.83
2018-09-05T00:55:18.685Z,177.57
2018-09-05T00:57:48.119Z,147.37
2018-09-05T01:00:18.377Z,157.63
2018-09-05T01:02:47.746Z,188.20
2018-09-05T01:05:17.388Z,171.07
2018-09-05T01:07:46.852Z,144.27
2018-09-05T01:10:15.930Z,178.80
2018-09-05T01:12:45.133Z,163.07
2018-09-05T01:15:14.364Z,138.00
2018-09-05T01:17:43.532Z,165.90
2018-09-05T01:20:12.838Z,146.23
2018-09-05T01:22:42.089Z,155.23
2018-09-05T01:25:11.348Z,153.07
2018-09-05T01:27:40.579Z,151.27
2018-09-05T01:30:09.868Z,146.80
2018-09-05T01:32:39.252Z,163.80
2018-09-05T01:35:09.037Z,149.23
2018-09-05T01:37:38.146Z,184.67
2018-09-05T01:40:07.413Z,188.60
2018-09-05T01:42:36.504Z,178.30
2018-09-05T01:45:05.807Z,158.17
2018-09-05T01:47:35.165Z,138.27
2018-09-05T01:50:04.299Z,147.30
2018-09-05T01:52:33.492Z,152.33
2018-09-05T01:55:02.671Z,151.30
2018-09-05T01:57:31.982Z,161.73
2018-09-05T02:00:01.136Z,166.43
2018-09-05T02:02:30.256Z,157.83
2018-09-05T02:04:59.341Z,142.27
2018-09-05T02:07:28.541Z,141.30
2018-09-05T02:09:57.622Z,152.47
2018-09-05T02:12:26.919Z,137.00
2018-09-05T02:14:56.144Z,158.23
2018-09-05T02:17:25.427Z,170.70
2018-09-05T02:19:54.511Z,187.93
2018-09-05T02:22:24.122Z,149.43
2018-09-05T02:24:53.288Z,158.53
2018-09-05T02:27:25.458Z,143.10
2018-09-05T02:29:54.622Z,140.77
2018-09-05T02:32:23.913Z,145.27
2018-09-05T02:34:53.283Z,139.60
2018-09-05T02:37:22.489Z,177.87
2018-09-05T02:39:51.691Z,148.50
2018-09-05T02:42:21.112Z,168.70
2018-09-05T02:44:50.381Z,148.73
2018-09-05T02:47:19.803Z,145.33
2018-09-05T02:49:48.876Z,147.20
2018-09-05T02:52:18.059Z,141.83
2018-09-05T02:54:48.490Z,142.40
2018-09-05T02:57:17.565Z,134.73
2018-09-05T02:59:46.811Z,143.03
2018-09-05T03:02:16.244Z,163.23
2018-09-05T03:04:45.348Z,147.00
2018-09-05T03:07:14.416Z,131.20
2018-09-05T03:09:43.659Z,131.97
2018-09-05T03:12:18.133Z,127.97
2018-09-05T03:14:48.226Z,138.07
2018-09-05T03:17:17.347Z,121.53
2018-09-05T03:19:47.025Z,131.97
2018-09-05T03:22:16.332Z,128.43
2018-09-05T03:24:45.493Z,130.30
2018-09-05T03:27:14.656Z,128.23
2018-09-05T03:29:44.101Z,134.80
2018-09-05T03:32:13.224Z,136.43
2018-09-05T03:34:42.542Z,137.57
2018-09-05T03:37:13.171Z,129.13
2018-09-05T03:39:42.458Z,138.17
2018-09-05T03:42:11.652Z,149.63
2018-09-05T03:44:41.253Z,163.57
2018-09-05T03:47:10.540Z,134.80
2018-09-05T03:49:39.920Z,146.60
2018-09-05T03:52:09.424Z,146.90
2018-09-05T03:54:38.511Z,163.63
2018-09-05T03:57:08.973Z,141.53
2018-09-05T03:59:38.134Z,149.70
2018-09-05T04:02:07.877Z,165.83
2018-09-05T04:04:36.968Z,160.90
2018-09-05T04:07:06.751Z,152.80
2018-09-05T04:09:37.360Z,153.30
2018-09-05T04:12:08.039Z,136.80
2018-09-05T04:14:37.100Z,141.63
2018-09-05T04:17:06.416Z,148.50
2018-09-05T04:19:36.452Z,186.20
2018-09-05T04:22:05.672Z,161.77
2018-09-05T04:24:34.828Z,151.57
2018-09-05T04:27:04.007Z,141.93
2018-09-05T04:29:33.273Z,166.90
2018-09-05T04:32:04.525Z,175.37
2018-09-05T04:34:33.755Z,178.03
2018-09-05T04:37:02.992Z,195.87
2018-09-05T04:39:32.298Z,195.12
2018-09-05T04:42:02.045Z,170.47
2018-09-05T04:44:31.964Z,171.77
2018-09-05T04:47:01.427Z,169.10
2018-09-05T04:49:30.762Z,170.37
2018-09-05T04:52:00.287Z,169.57
2018-09-05T04:54:29.419Z,192.73
2018-09-05T04:56:59.042Z,173.43
2018-09-05T04:59:28.303Z,209.00
2018-09-05T05:01:57.747Z,197.87
2018-09-05T05:04:32.789Z,196.57
2018-09-05T05:07:02.248Z,196.77
2018-09-05T05:09:31.429Z,196.80
2018-09-05T05:12:00.571Z,167.07
2018-09-05T05:14:29.835Z,163.90
2018-09-05T05:16:59.010Z,164.77
2018-09-05T05:19:28.210Z,168.73
2018-09-05T05:21:57.479Z,184.90
2018-09-05T05:24:26.671Z,192.77
2018-09-05T05:26:55.976Z,154.87
2018-09-05T05:29:25.193Z,161.87
2018-09-05T05:31:54.357Z,148.93
2018-09-05T05:34:23.866Z,146.53
2018-09-05T05:36:53.183Z,183.17
2018-09-05T05:39:22.282Z,184.13
2018-09-05T05:41:51.421Z,179.90
2018-09-05T05:44:20.635Z,207.53
2018-09-05T05:46:49.919Z,211.07
2018-09-05T05:49:19.217Z,201.03
2018-09-05T05:51:48.550Z,171.00
2018-09-05T05:54:17.958Z,174.10
2018-09-05T05:56:47.229Z,170.67
2018-09-05T05:59:16.426Z,173.30
2018-09-05T06:01:45.825Z,166.57
2018-09-05T06:04:15.210Z,167.07
2018-09-05T06:06:44.452Z,151.13
2018-09-05T06:09:13.629Z,156.77
2018-09-05T06:11:43.240Z,156.30
2018-09-05T06:14:12.529Z,151.17
2018-09-05T06:16:41.720Z,150.37
2018-09-05T06:19:11.063Z,150.20
2018-09-05T06:21:40.878Z,150.77
2018-09-05T06:24:10.041Z,148.90
2018-09-05T06:26:39.372Z,150.53
2018-09-05T06:29:08.554Z,164.40
2018-09-05T06:31:37.878Z,149.33
2018-09-05T06:34:07.491Z,174.37
2018-09-05T06:36:36.781Z,172.03
2018-09-05T06:39:10.392Z,172.10
2018-09-05T06:41:39.686Z,177.30
2018-09-05T06:44:09.384Z,179.93
2018-09-05T06:46:38.693Z,187.13
2018-09-05T06:49:07.785Z,188.63
2018-09-05T06:51:36.872Z,184.03
2018-09-05T06:54:06.507Z,178.40
2018-09-05T06:56:35.916Z,187.03
2018-09-05T06:59:05.241Z,193.13
2018-09-05T07:01:35.005Z,181.70
2018-09-05T07:04:04.253Z,185.20
2018-09-05T07:06:33.654Z,175.83
2018-09-05T07:09:04.568Z,175.47
2018-09-05T07:11:33.683Z,164.97
2018-09-05T07:14:02.973Z,159.00
2018-09-05T07:16:32.560Z,166.40
2018-09-05T07:19:01.845Z,163.60
2018-09-05T07:21:31.052Z,163.77
2018-09-05T07:24:00.208Z,155.97
2018-09-05T07:26:29.545Z,172.85
2018-09-05T07:28:58.682Z,161.73
2018-09-05T07:31:27.953Z,157.72
2018-09-05T07:33:58.063Z,148.17
2018-09-05T07:36:27.297Z,133.97
2018-09-05T07:38:56.662Z,142.53
2018-09-05T07:41:25.726Z,129.50
2018-09-05T07:43:55.103Z,131.83
2018-09-05T07:46:24.182Z,130.77
2018-09-05T07:48:53.551Z,122.90
2018-09-05T07:51:22.721Z,126.85
2018-09-05T07:53:51.917Z,126.53
2018-09-05T07:56:21.182Z,122.42
2018-09-05T07:58:50.242Z,111.10
2018-09-05T08:01:19.745Z,109.17
2018-09-05T08:03:49.706Z,104.73
2018-09-05T08:06:18.855Z,107.90
2018-09-05T08:08:48.754Z,109.27
2018-09-05T08:11:17.880Z,108.67
2018-09-05T08:13:47.722Z,103.70
2018-09-05T08:16:16.984Z,108.17
2018-09-05T08:18:46.132Z,106.37
2018-09-05T08:21:16.171Z,101.93
2018-09-05T08:23:46.420Z,107.57
2018-09-05T08:26:15.781Z,99.10
2018-09-05T08:28:44.903Z,101.13
2018-09-05T08:31:14.137Z,102.10
2018-09-05T08:33:43.301Z,98.40
2018-09-05T08:36:12.687Z,93.17
2018-09-05T08:39:15.385Z,114.50
2018-09-05T08:41:44.614Z,99.43
2018-09-05T08:44:13.937Z,103.97
2018-09-05T08:46:42.835Z,101.27
2018-09-05T08:49:12.345Z,91.23
2018-09-05T08:51:41.531Z,92.23
2018-09-05T08:54:10.714Z,87.40
2018-09-05T08:56:39.788Z,79.97
2018-09-05T08:59:08.875Z,90.30
2018-09-05T09:01:38.380Z,80.13
2018-09-05T09:04:07.776Z,88.03
2018-09-05T09:06:36.951Z,80.40
2018-09-05T09:09:09.271Z,83.13
2018-09-05T09:11:38.723Z,93.85
2018-09-05T09:14:10.861Z,86.47
2018-09-05T09:16:40.263Z,86.87
2018-09-05T09:19:09.358Z,80.70
2018-09-05T09:21:38.543Z,82.77
2018-09-05T09:24:09.595Z,82.33
2018-09-05T09:26:38.737Z,84.33
2018-09-05T09:29:07.963Z,75.93
2018-09-05T09:31:37.142Z,77.30
2018-09-05T09:34:06.411Z,82.13
2018-09-05T09:36:35.882Z,78.13
2018-09-05T09:39:08.874Z,70.30
2018-09-05T09:41:38.057Z,78.60
2018-09-05T09:44:07.268Z,65.60
2018-09-05T09:46:37.102Z,78.50
2018-09-05T09:49:07.783Z,75.03
2018-09-05T09:51:36.869Z,79.40
2018-09-05T09:54:06.215Z,75.73
2018-09-05T09:56:35.696Z,74.70
2018-09-05T09:59:05.099Z,77.57
2018-09-05T10:01:39.701Z,75.10
2018-09-05T10:04:14.190Z,72.77
2018-09-05T10:06:47.745Z,64.47
2018-09-05T10:09:22.019Z,69.33
2018-09-05T10:11:56.673Z,74.10
2018-09-05T10:14:31.797Z,69.83
2018-09-05T10:17:06.463Z,62.53
2018-09-05T10:19:35.645Z,71.97
2018-09-05T10:22:04.974Z,64.30
2018-09-05T10:24:34.167Z,70.97
2018-09-05T10:27:09.509Z,58.80
2018-09-05T10:29:39.293Z,59.80
2018-09-05T10:32:08.497Z,66.40
2018-09-05T10:34:37.808Z,67.00
2018-09-05T10:37:06.936Z,64.20
2018-09-05T10:39:36.132Z,62.30
2018-09-05T10:42:05.308Z,63.07
2018-09-05T10:44:35.065Z,66.02
2018-09-05T10:47:04.155Z,66.40
2018-09-05T10:49:33.601Z,67.73
2018-09-05T10:52:04.770Z,66.70
2018-09-05T10:54:34.108Z,65.50
2018-09-05T10:57:04.165Z,63.90
2018-09-05T10:59:33.581Z,63.80
2018-09-05T11:02:03.165Z,57.78
2018-09-05T11:04:32.327Z,61.42
2018-09-05T11:07:01.584Z,61.08
2018-09-05T11:09:30.727Z,63.17
2018-09-05T11:11:59.977Z,63.17
2018-09-05T11:14:29.128Z,66.80
2018-09-05T11:16:58.590Z,66.75
2018-09-05T11:19:27.944Z,55.35
2018-09-05T11:21:57.236Z,55.88
2018-09-05T11:24:26.520Z,52.78
2018-09-05T11:26:55.737Z,52.62
2018-09-05T11:29:25.204Z,55.08
2018-09-05T11:31:54.433Z,63.98
2018-09-05T11:34:23.532Z,59.93
2018-09-05T11:36:53.892Z,61.65
2018-09-05T11:39:23.050Z,55.70
2018-09-05T11:41:52.142Z,59.42
2018-09-05T11:44:21.525Z,52.15
2018-09-05T11:46:50.641Z,56.37
2018-09-05T11:49:20.011Z,56.53
2018-09-05T11:51:49.075Z,59.33
2018-09-05T11:54:18.413Z,55.30
2018-09-05T11:56:47.606Z,55.00
2018-09-05T11:59:16.824Z,54.88
2018-09-05T12:01:46.041Z,53.75
2018-09-05T12:04:15.229Z,58.58
2018-09-05T12:06:44.737Z,51.95
2018-09-05T12:09:13.884Z,54.05
2018-09-05T12:11:43.004Z,55.95
2018-09-05T12:14:12.418Z,65.62
2018-09-05T12:16:41.811Z,54.95
2018-09-05T12:19:11.014Z,57.45
2018-09-05T12:21:40.293Z,61.77
2018-09-05T12:24:09.362Z,63.87
2018-09-05T12:26:38.611Z,58.35
2018-09-05T12:29:10.449Z,59.77
2018-09-05T12:31:40.393Z,56.37
2018-09-05T12:34:09.856Z,56.75
2018-09-05T12:36:39.087Z,54.42
2018-09-05T12:39:11.837Z,56.45
2018-09-05T12:41:41.557Z,59.63
2018-09-05T12:44:11.489Z,61.68
2018-09-05T12:46:40.550Z,59.42
2018-09-05T12:49:10.434Z,60.73
2018-09-05T12:51:39.700Z,61.18
2018-09-05T12:54:09.820Z,60.50
2018-09-05T12:56:38.961Z,58.25
2018-09-05T12:59:08.212Z,59.38
2018-09-05T13:01:37.506Z,62.30
2018-09-05T13:04:07.093Z,61.00
2018-09-05T13:06:36.584Z,66.25
2018-09-05T13:09:09.215Z,71.53
2018-09-05T13:11:38.467Z,76.47
2018-09-05T13:14:07.570Z,71.15
2018-09-05T13:16:36.975Z,67.45
2018-09-05T13:19:06.197Z,73.50
2018-09-05T13:21:35.596Z,71.05
2018-09-05T13:24:04.767Z,69.60
2018-09-05T13:26:33.956Z,66.80
2018-09-05T13:29:03.148Z,74.77
2018-09-05T13:31:32.706Z,66.80
2018-09-05T13:34:01.987Z,67.32
2018-09-05T13:36:31.165Z,68.12
2018-09-05T13:39:00.397Z,74.97
2018-09-05T13:41:29.675Z,63.70
2018-09-05T13:43:58.826Z,59.08
2018-09-05T13:46:28.637Z,63.73
2018-09-05T13:48:57.841Z,63.20
2018-09-05T13:51:27.080Z,59.48
2018-09-05T13:53:56.175Z,70.30
2018-09-05T13:56:25.653Z,67.55
2018-09-05T13:58:54.829Z,58.02
2018-09-05T14:01:24.105Z,62.55
2018-09-05T14:03:53.582Z,65.15
2018-09-05T14:06:22.896Z,75.08
2018-09-05T14:08:52.070Z,61.02
2018-09-05T14:11:21.924Z,60.33
2018-09-05T14:13:51.155Z,62.58
2018-09-05T14:16:20.525Z,63.42
2018-09-05T14:18:49.620Z,65.30
2018-09-05T14:21:18.822Z,61.30
2018-09-05T14:23:48.164Z,62.10
2018-09-05T14:26:17.399Z,59.50
2018-09-05T14:28:46.557Z,61.08
2018-09-05T14:31:15.853Z,60.52
2018-09-05T14:33:44.977Z,65.52
2018-09-05T14:36:14.185Z,64.35
2018-09-05T14:38:43.898Z,65.60
2018-09-05T14:41:12.958Z,63.15
2018-09-05T14:43:42.067Z,58.00
2018-09-05T14:46:11.961Z,59.15
2018-09-05T14:48:41.251Z,61.60
2018-09-05T14:51:10.548Z,54.90
2018-09-05T14:53:39.666Z,55.88
2018-09-05T14:56:08.935Z,56.92
2018-09-05T14:58:38.128Z,52.35
2018-09-05T15:01:08.038Z,51.28
2018-09-05T15:03:37.441Z,60.10
2018-09-05T15:06:06.573Z,57.30
2018-09-05T15:08:35.715Z,52.75
2018-09-05T15:11:05.011Z,58.65
2018-09-05T15:13:34.313Z,55.73
2018-09-05T15:16:03.402Z,61.10
2018-09-05T15:18:32.496Z,59.93
2018-09-05T15:21:02.337Z,62.83
2018-09-05T15:23:31.426Z,58.10
2018-09-05T15:26:00.731Z,50.65
2018-09-05T15:28:30.213Z,43.60
2018-09-05T15:30:59.389Z,71.10
2018-09-05T15:33:28.837Z,72.03
2018-09-05T15:35:58.698Z,67.87
2018-09-05T15:38:27.809Z,62.25
2018-09-05T15:40:56.872Z,68.70
2018-09-05T15:43:26.061Z,64.30
2018-09-05T15:45:55.147Z,71.27
2018-09-05T15:48:24.345Z,52.73
2018-09-05T15:50:53.585Z,61.63
2018-09-05T15:53:23.645Z,61.87
2018-09-05T15:55:53.042Z,63.23
2018-09-05T15:58:22.277Z,63.28
2018-09-05T16:00:51.371Z,59.17
2018-09-05T16:03:20.535Z,58.37
2018-09-05T16:05:49.924Z,56.33
2018-09-05T16:08:19.110Z,75.67
2018-09-05T16:10:48.421Z,66.27
2018-09-05T16:13:17.609Z,68.83
2018-09-05T16:15:46.690Z,68.80
2018-09-05T16:18:15.928Z,67.40
2018-09-05T16:20:45.356Z,70.93
2018-09-05T16:23:14.661Z,63.13
2018-09-05T16:25:44.131Z,59.77
2018-09-05T16:28:13.232Z,67.60
2018-09-05T16:30:43.856Z,67.83
2018-09-05T16:33:13.339Z,65.47
2018-09-05T16:35:42.804Z,64.53
2018-09-05T16:38:12.309Z,69.73
2018-09-05T16:40:41.559Z,64.43
2018-09-05T16:43:10.753Z,64.97
2018-09-05T16:45:39.981Z,68.30
2018-09-05T16:48:09.138Z,66.67
2018-09-05T16:50:38.523Z,61.83
2018-09-05T16:53:07.921Z,69.10
2018-09-05T16:55:37.341Z,72.77
2018-09-05T16:58:06.442Z,71.13
2018-09-05T17:00:35.883Z,71.60
2018-09-05T17:03:05.627Z,75.60
2018-09-05T17:05:34.754Z,75.23
2018-09-05T17:08:04.025Z,72.77
2018-09-05T17:10:33.528Z,74.57
2018-09-05T17:13:02.719Z,71.63
2018-09-05T17:15:32.189Z,75.93
2018-09-05T17:18:01.620Z,66.73
2018-09-05T17:20:30.886Z,65.77
2018-09-05T17:23:00.339Z,66.47
2018-09-05T17:25:29.661Z,64.57
2018-09-05T17:27:58.792Z,69.70
2018-09-05T17:30:27.978Z,59.20
2018-09-05T17:32:57.482Z,71.20
2018-09-05T17:35:26.863Z,73.60
2018-09-05T17:37:56.136Z,69.87
2018-09-05T17:40:25.407Z,70.70
2018-09-05T17:42:55.367Z,64.43
2018-09-05T17:45:24.555Z,62.20
2018-09-05T17:47:53.821Z,69.20
2018-09-05T17:50:23.074Z,58.67
2018-09-05T17:52:52.277Z,59.77
2018-09-05T17:55:21.495Z,65.40
2018-09-05T17:57:50.801Z,71.30
2018-09-05T18:00:20.046Z,73.83
2018-09-05T18:02:49.200Z,68.83
2018-09-05T18:05:18.438Z,73.43
2018-09-05T18:07:47.905Z,72.50
2018-09-05T18:10:17.230Z,74.53
2018-09-05T18:12:46.533Z,79.53
2018-09-05T18:15:15.756Z,82.73
2018-09-05T18:17:45.680Z,83.60
2018-09-05T18:20:15.726Z,88.07
2018-09-05T18:22:44.847Z,83.40
2018-09-05T18:25:14.231Z,90.27
2018-09-05T18:27:44.744Z,91.77
2018-09-05T18:30:14.015Z,94.83
2018-09-05T18:32:43.281Z,93.70
2018-09-05T18:35:12.626Z,101.33
2018-09-05T18:37:41.893Z,102.83
2018-09-05T18:40:11.038Z,100.63
2018-09-05T18:42:40.661Z,102.37
2018-09-05T18:45:09.810Z,102.40
2018-09-05T18:47:39.091Z,95.67
2018-09-05T18:50:08.483Z,99.93
2018-09-05T18:52:37.982Z,90.03
2018-09-05T18:55:07.219Z,88.67
2018-09-05T18:57:36.350Z,81.83
2018-09-05T19:00:05.665Z,80.93
2018-09-05T19:02:34.824Z,75.93
2018-09-05T19:05:04.318Z,75.87
2018-09-05T19:07:33.912Z,72.17
2018-09-05T19:10:03.298Z,69.43
2018-09-05T19:12:32.546Z,69.60
2018-09-05T19:15:01.884Z,71.53
2018-09-05T19:17:31.092Z,68.23
2018-09-05T19:20:00.364Z,60.67
2018-09-05T19:22:29.612Z,57.40
2018-09-05T19:24:58.860Z,57.30
2018-09-05T19:27:28.322Z,55.97
2018-09-05T19:29:58.163Z,54.03
2018-09-05T19:32:27.434Z,51.13
2018-09-05T19:34:57.350Z,40.67
2018-09-05T19:37:26.622Z,37.10
2018-09-05T19:39:55.756Z,37.20
2018-09-05T19:42:25.009Z,36.37
2018-09-05T19:44:54.737Z,35.30
2018-09-05T19:47:24.055Z,32.27
2018-09-05T19:49:53.268Z,30.40
2018-09-05T19:52:24.909Z,33.07
2018-09-05T19:54:54.068Z,31.33
2018-09-05T19:57:23.334Z,30.67
2018-09-05T19:59:52.452Z,30.33
2018-09-05T20:02:21.711Z,30.63
2018-09-05T20:04:51.407Z,31.23
2018-09-05T20:07:20.665Z,29.87
2018-09-05T20:09:49.792Z,29.17
2018-09-05T20:12:19.367Z,29.60
2018-09-05T20:14:48.923Z,29.83
2018-09-05T20:17:18.543Z,25.40
2018-09-05T20:19:47.815Z,27.17
2018-09-05T20:22:17.158Z,29.70
2018-09-05T20:24:46.595Z,27.20
2018-09-05T20:27:15.975Z,27.83
2018-09-05T20:29:45.180Z,27.00
2018-09-05T20:32:14.314Z,25.63
2018-09-05T20:34:43.547Z,22.93
2018-09-05T20:37:12.674Z,22.83
2018-09-05T20:39:41.869Z,20.43
2018-09-05T20:42:11.174Z,19.98
2018-09-05T20:44:40.423Z,17.00
2018-09-05T20:47:10.832Z,16.10
2018-09-05T20:49:40.200Z,16.57
2018-09-05T20:52:09.469Z,15.20
2018-09-05T20:54:38.765Z,12.83
2018-09-05T20:57:07.957Z,11.33
2018-09-05T20:59:37.209Z,10.03
2018-09-05T21:02:06.950Z,10.73
2018-09-05T21:04:36.170Z,12.63
2018-09-05T21:07:05.379Z,16.30
2018-09-05T21:09:34.609Z,19.90
2018-09-05T21:12:03.704Z,12.73
2018-09-05T21:14:32.887Z,16.30
2018-09-05T21:17:02.662Z,14.17
2018-09-05T21:19:31.721Z,14.03
2018-09-05T21:22:00.815Z,16.67
2018-09-05T21:24:29.968Z,15.70
2018-09-05T21:26:59.047Z,16.67
2018-09-05T21:29:28.349Z,16.70
2018-09-05T21:31:57.631Z,15.40
2018-09-05T21:34:26.820Z,17.50
2018-09-05T21:36:56.944Z,18.30
2018-09-05T21:39:26.227Z,17.47
2018-09-05T21:41:55.504Z,18.07
2018-09-05T21:44:24.829Z,19.23
2018-09-05T21:46:54.164Z,20.83
2018-09-05T21:49:24.100Z,22.10
2018-09-05T21:51:53.988Z,21.27
2018-09-05T21:54:23.123Z,26.77
2018-09-05T21:56:52.369Z,33.53
2018-09-05T21:59:21.660Z,31.60
2018-09-05T22:01:50.871Z,30.77
2018-09-05T22:04:20.071Z,37.57
2018-09-05T22:06:49.256Z,38.27
2018-09-05T22:09:18.559Z,43.37
2018-09-05T22:11:47.622Z,41.87
2018-09-05T22:14:19.792Z,43.97
2018-09-05T22:16:49.123Z,65.20
2018-09-05T22:19:18.340Z,50.07
2018-09-05T22:21:47.658Z,51.60
2018-09-05T22:24:16.823Z,69.03
2018-09-05T22:26:46.350Z,54.47
2018-09-05T22:29:16.379Z,51.37
2018-09-05T22:31:46.680Z,46.93
2018-09-05T22:34:17.015Z,46.83
2018-09-05T22:36:46.276Z,46.63
2018-09-05T22:39:15.512Z,49.10
2018-09-05T22:41:44.657Z,41.00
2018-09-05T22:44:25.260Z,62.63
2018-09-05T22:47:05.499Z,77.20
2018-09-05T22:49:58.243Z,69.60
2018-09-05T22:52:46.415Z,69.73
2018-09-05T22:56:30.165Z,57.07
2018-09-05T22:59:25.398Z,55.13
2018-09-05T23:14:25.197Z,52.47
2018-09-05T23:17:13.490Z,60.23
2018-09-05T23:19:54.803Z,61.03
2018-09-05T23:22:24.231Z,47.33
2018-09-05T23:24:53.321Z,43.93
2018-09-05T23:27:23.322Z,43.07
2018-09-05T23:29:52.612Z,40.60
2018-09-05T23:32:21.881Z,37.27
2018-09-05T23:34:50.970Z,36.93
2018-09-05T23:37:20.100Z,38.43
2018-09-05T23:39:49.264Z,36.53
2018-09-05T23:42:18.615Z,44.60
2018-09-05T23:44:47.773Z,45.13
2018-09-05T23:47:17.672Z,45.07
2018-09-05T23:49:46.782Z,45.47
2018-09-05T23:52:15.885Z,49.13
2018-09-05T23:54:44.968Z,49.73
2018-09-05T23:57:14.160Z,49.37
2018-09-05T23:59:43.966Z,55.50
